Time;durP1;ratioP1;P1;durP2;ratioP2;P2;SDS_P1;SDS_P2;PMS_P1;PMS_P2;Temp;Humidity;BMP_temperature;BMP_pressure;BME280_temperature;BME280_humidity;BME280_pressure;Samples;Min_cycle;Max_cycle;Signal;HPM_P1;HPM_P2
2023/08/17 00:00:52;;;;;;;4.30;2.47;;;;;;;23.33;61.18;100988.88;5092287;28;20040;-55
2023/08/17 00:03:19;;;;;;;3.47;2.80;;;;;;;23.12;62.49;100994.50;5086774;28;20160;-55
2023/08/17 00:05:45;;;;;;;4.70;3.03;;;;;;;22.92;63.23;100995.47;5071811;28;20078;-55
2023/08/17 00:08:11;;;;;;;5.85;2.78;;;;;;;22.99;63.64;100988.91;5071586;28;20031;-55
2023/08/17 00:10:38;;;;;;;4.43;3.50;;;;;;;22.66;64.47;100988.56;5071623;28;20086;-55
2023/08/17 00:13:04;;;;;;;5.07;3.40;;;;;;;22.56;65.29;100988.63;5071699;28;20103;-55
2023/08/17 00:15:32;;;;;;;7.30;4.85;;;;;;;22.24;65.77;100978.97;5071903;28;20029;-55
2023/08/17 00:17:58;;;;;;;5.63;4.55;;;;;;;22.10;67.17;100976.03;5071937;28;20108;-55
2023/08/17 00:20:24;;;;;;;6.32;4.90;;;;;;;22.07;67.29;100975.75;5071125;28;20039;-55
2023/08/17 00:22:50;;;;;;;4.18;3.78;;;;;;;21.97;68.01;100978.50;5071713;28;20045;-55
2023/08/17 00:25:17;;;;;;;4.43;3.75;;;;;;;22.07;68.17;100981.19;5071645;28;20056;-55
2023/08/17 00:27:43;;;;;;;5.70;4.20;;;;;;;21.98;67.67;100991.03;5071650;28;20474;-55
2023/08/17 00:30:10;;;;;;;5.97;4.25;;;;;;;21.66;68.51;100992.25;5071509;28;20482;-55
2023/08/17 00:32:36;;;;;;;5.00;3.97;;;;;;;21.76;68.30;100985.94;5071656;28;20074;-55
2023/08/17 00:35:02;;;;;;;4.68;3.97;;;;;;;21.42;69.83;100991.19;5071611;28;20090;-56
2023/08/17 00:37:29;;;;;;;7.40;4.50;;;;;;;21.46;69.98;100974.03;5071986;28;20024;-55
2023/08/17 00:39:55;;;;;;;6.70;4.45;;;;;;;21.53;69.76;100981.91;5071150;28;20432;-55
2023/08/17 00:42:21;;;;;;;6.50;4.55;;;;;;;21.62;69.37;100977.53;5071450;28;20066;-55
2023/08/17 00:44:48;;;;;;;3.90;3.28;;;;;;;21.44;69.88;100973.50;5070962;28;20020;-55
2023/08/17 00:47:15;;;;;;;5.28;3.88;;;;;;;21.42;69.99;100974.84;5070935;28;20028;-55
2023/08/17 00:49:41;;;;;;;5.13;3.70;;;;;;;21.75;69.37;100974.22;5071565;28;20029;-55
2023/08/17 00:52:07;;;;;;;4.13;3.72;;;;;;;21.60;68.87;100966.13;5071428;28;20078;-55
2023/08/17 00:54:34;;;;;;;3.38;2.90;;;;;;;21.62;68.75;100966.66;5071283;28;20040;-55
2023/08/17 00:57:01;;;;;;;4.57;3.17;;;;;;;21.48;69.40;100976.47;5071044;28;20024;-55
2023/08/17 00:59:28;;;;;;;3.83;3.20;;;;;;;21.20;70.44;100975.94;5071212;28;20071;-54
2023/08/17 01:01:55;;;;;;;9.27;4.25;;;;;;;20.88;71.87;100972.69;5071126;28;20040;-55
2023/08/17 01:04:21;;;;;;;4.88;3.35;;;;;;;20.75;73.04;100969.41;5071224;28;20056;-55
2023/08/17 01:06:47;;;;;;;4.80;3.25;;;;;;;20.73;73.51;100977.03;5071199;28;20108;-55
2023/08/17 01:09:14;;;;;;;4.72;3.13;;;;;;;21.01;72.91;100972.16;5071087;28;20036;-55
2023/08/17 01:12:00;;;;;;;4.90;3.28;;;;;;;20.98;72.46;100978.13;5071168;28;20025;-55
2023/08/17 01:14:58;;;;;;;4.55;3.28;;;;;;;21.05;72.23;100971.31;5071194;28;20394;-55
2023/08/17 01:17:41;;;;;;;4.00;3.03;;;;;;;21.11;71.96;100957.72;5053541;28;20037;-55
2023/08/17 01:20:12;;;;;;;2.88;2.47;;;;;;;21.09;72.06;100955.25;5070935;28;20063;-55
2023/08/17 01:22:45;;;;;;;2.67;2.20;;;;;;;21.00;72.09;100951.47;5071142;28;20025;-55
2023/08/17 01:25:11;;;;;;;3.22;2.13;;;;;;;21.07;71.35;100950.09;5071246;28;20108;-55
2023/08/17 01:27:43;;;;;;;3.25;2.13;;;;;;;21.07;72.02;100938.38;5071305;28;20060;-55
2023/08/17 01:30:13;;;;;;;3.38;1.88;;;;;;;21.14;71.40;100951.72;5070951;28;20115;-55
2023/08/17 01:32:42;;;;;;;2.88;1.90;;;;;;;21.06;71.71;100939.50;5070884;28;20033;-55
2023/08/17 01:35:24;;;;;;;3.42;1.98;;;;;;;21.03;71.65;100937.31;5074853;28;20048;-55
2023/08/17 01:37:53;;;;;;;2.00;1.80;;;;;;;21.01;71.68;100939.50;5082133;28;20386;-55
2023/08/17 01:40:20;;;;;;;2.20;1.60;;;;;;;20.87;72.31;100932.94;5090865;28;20539;-54
2023/08/17 01:42:48;;;;;;;1.88;1.60;;;;;;;20.74;72.80;100937.84;5077995;28;20029;-54
2023/08/17 01:45:15;;;;;;;1.98;1.45;;;;;;;20.60;72.95;100934.03;5072875;28;20546;-55
2023/08/17 01:47:41;;;;;;;2.17;1.30;;;;;;;20.50;74.39;100944.91;5087412;28;20454;-55
2023/08/17 01:50:08;;;;;;;2.47;1.23;;;;;;;20.67;74.09;100937.31;5086811;28;20520;-52
2023/08/17 01:52:37;;;;;;;1.52;1.25;;;;;;;20.60;73.59;100928.59;5090445;28;20027;-50
2023/08/17 01:55:04;;;;;;;2.30;1.60;;;;;;;20.64;73.56;100929.69;5091829;28;20027;-56
2023/08/17 01:57:30;;;;;;;1.45;1.23;;;;;;;20.65;73.32;100917.72;5087962;28;20441;-57
2023/08/17 01:59:56;;;;;;;1.83;1.40;;;;;;;20.64;73.59;100929.69;5091406;28;20060;-53
2023/08/17 02:02:23;;;;;;;3.90;1.60;;;;;;;20.48;74.51;100937.00;5093636;28;20363;-53
2023/08/17 02:04:49;;;;;;;1.92;1.27;;;;;;;20.47;74.45;100937.28;5093781;28;20031;-53
2023/08/17 02:07:15;;;;;;;2.03;1.40;;;;;;;20.52;74.60;100937.28;5093493;28;20493;-52
2023/08/17 02:09:42;;;;;;;2.47;1.23;;;;;;;20.36;75.40;100924.72;5094097;28;20032;-52
2023/08/17 02:12:08;;;;;;;1.58;0.90;;;;;;;20.27;75.78;100927.16;5094117;28;20420;-53
2023/08/17 02:14:34;;;;;;;2.83;1.25;;;;;;;19.95;76.75;100938.19;5094167;28;20401;-53
2023/08/17 02:17:00;;;;;;;3.53;1.33;;;;;;;20.09;76.71;100930.34;5091860;28;20058;-53
2023/08/17 02:19:27;;;;;;;2.00;1.30;;;;;;;20.01;77.01;100931.69;5092820;28;20389;-53
2023/08/17 02:21:53;;;;;;;3.35;1.13;;;;;;;19.83;77.52;100924.84;5090851;28;20044;-53
2023/08/17 02:24:19;;;;;;;2.58;1.10;;;;;;;19.60;78.54;100933.41;5095888;28;20391;-56
2023/08/17 02:26:45;;;;;;;2.85;1.10;;;;;;;19.63;78.90;100922.03;5114516;28;20125;-54
2023/08/17 02:29:12;;;;;;;4.97;1.13;;;;;;;19.56;79.84;100932.28;5114135;28;20034;-52
2023/08/17 02:31:38;;;;;;;0.80;0.80;;;;;;;19.39;80.92;100932.47;5101059;28;20100;-53
2023/08/17 02:34:05;;;;;;;2.00;1.00;;;;;;;19.37;80.54;100927.28;5085077;28;20056;-54
2023/08/17 02:36:31;;;;;;;1.95;0.98;;;;;;;19.37;80.78;100921.84;5086002;28;20061;-53
2023/08/17 02:38:58;;;;;;;2.35;1.20;;;;;;;18.92;83.75;100928.59;5096546;28;20046;-52
2023/08/17 02:41:24;;;;;;;1.67;1.23;;;;;;;19.09;83.27;100925.72;5076797;28;20115;-50
2023/08/17 02:43:50;;;;;;;1.00;0.90;;;;;;;19.10;83.62;100921.13;5093141;28;20522;-51
2023/08/17 02:46:17;;;;;;;1.23;1.00;;;;;;;19.01;84.17;100923.53;5085068;28;20787;-56
2023/08/17 02:48:43;;;;;;;2.20;1.33;;;;;;;19.11;83.53;100920.88;5085206;28;20028;-53
2023/08/17 02:51:09;;;;;;;1.67;1.33;;;;;;;19.04;84.06;100922.97;5093167;28;20031;-48
2023/08/17 02:53:36;;;;;;;1.80;1.45;;;;;;;18.78;85.46;100923.88;5090503;28;20081;-56
2023/08/17 02:56:02;;;;;;;2.20;1.50;;;;;;;18.85;85.08;100919.88;5094091;28;20024;-56
2023/08/17 02:58:28;;;;;;;2.70;1.60;;;;;;;18.53;86.85;100925.25;5093298;28;20111;-57
2023/08/17 03:00:54;;;;;;;2.42;2.10;;;;;;;18.38;87.14;100919.69;5095243;28;20405;-56
2023/08/17 03:03:21;;;;;;;2.25;1.60;;;;;;;18.45;87.32;100921.13;5093853;28;20024;-57
2023/08/17 03:05:47;;;;;;;1.45;1.27;;;;;;;18.48;86.89;100922.47;5093854;28;20099;-57
2023/08/17 03:08:13;;;;;;;1.50;1.30;;;;;;;18.51;86.33;100918.44;5100780;28;20042;-56
2023/08/17 03:10:39;;;;;;;1.90;1.30;;;;;;;18.46;86.53;100921.94;5113587;28;20385;-56
2023/08/17 03:13:06;;;;;;;3.20;1.42;;;;;;;18.43;86.92;100922.44;5101696;28;20031;-56
2023/08/17 03:15:32;;;;;;;2.15;1.50;;;;;;;18.17;88.42;100926.78;5093278;28;20095;-56
2023/08/17 03:17:58;;;;;;;1.90;1.60;;;;;;;18.16;88.78;100923.25;5075158;28;20022;-56
2023/08/17 03:20:24;;;;;;;2.53;2.00;;;;;;;18.22;88.86;100915.19;5104046;28;20070;-56
2023/08/17 03:22:51;;;;;;;2.03;1.83;;;;;;;18.26;88.78;100916.28;5095412;28;20122;-56
2023/08/17 03:25:18;;;;;;;2.80;2.40;;;;;;;18.08;89.02;100910.16;5113510;28;20488;-56
2023/08/17 03:27:45;;;;;;;2.80;1.95;;;;;;;18.10;89.87;100918.84;5113746;28;20023;-56
2023/08/17 03:30:11;;;;;;;1.60;1.48;;;;;;;18.15;89.41;100918.06;5097476;28;20707;-56
2023/08/17 03:32:40;;;;;;;2.20;1.90;;;;;;;18.09;90.07;100916.38;5074496;28;20040;-56
2023/08/17 03:35:07;;;;;;;1.63;1.52;;;;;;;18.11;89.62;100916.97;5092501;28;20085;-56
2023/08/17 03:37:33;;;;;;;3.22;2.05;;;;;;;18.16;89.31;100925.97;5082821;28;20028;-56
2023/08/17 03:40:03;;;;;;;1.70;1.60;;;;;;;18.12;89.67;100926.72;5084025;28;20053;-56
2023/08/17 03:42:29;;;;;;;1.40;1.30;;;;;;;18.10;89.68;100924.28;5070766;28;20107;-56
2023/08/17 03:44:55;;;;;;;2.30;1.50;;;;;;;18.04;89.83;100935.28;5083346;28;20150;-56
2023/08/17 03:47:22;;;;;;;2.47;2.28;;;;;;;17.88;90.77;100953.25;5088855;28;20044;-56
2023/08/17 03:49:48;;;;;;;2.83;2.08;;;;;;;17.78;92.68;100959.34;5074034;28;20449;-56
2023/08/17 03:52:14;;;;;;;3.65;2.42;;;;;;;17.74;93.27;100968.22;5092667;28;20030;-56
2023/08/17 03:54:40;;;;;;;2.63;2.42;;;;;;;17.69;93.64;100967.03;5092900;28;20050;-56
2023/08/17 03:57:07;;;;;;;3.20;2.90;;;;;;;17.49;95.08;100976.75;5092491;28;20028;-56
2023/08/17 03:59:33;;;;;;;3.70;3.40;;;;;;;17.48;95.95;100975.94;5088398;28;20107;-56
2023/08/17 04:01:59;;;;;;;4.13;3.60;;;;;;;17.58;96.03;100976.09;5073962;28;20036;-57
2023/08/17 04:04:25;;;;;;;3.53;3.22;;;;;;;17.45;97.13;100983.75;5090506;28;20103;-56
2023/08/17 04:06:52;;;;;;;4.35;3.35;;;;;;;17.46;96.41;100993.50;5092119;28;20051;-56
2023/08/17 04:09:18;;;;;;;5.28;2.78;;;;;;;17.65;94.86;100992.16;5091393;28;20027;-57
2023/08/17 04:11:45;;;;;;;4.82;3.53;;;;;;;17.58;95.14;100988.81;5092240;28;20031;-56
2023/08/17 04:14:12;;;;;;;3.92;3.10;;;;;;;17.53;95.57;100989.56;5092033;28;20081;-56
2023/08/17 04:16:38;;;;;;;5.05;3.53;;;;;;;17.25;97.26;100986.97;5092169;28;20030;-56
2023/08/17 04:19:04;;;;;;;4.22;3.45;;;;;;;17.39;96.61;100999.09;5090784;28;20027;-57
2023/08/17 04:21:31;;;;;;;5.07;3.72;;;;;;;17.29;96.79;100996.22;5091992;28;20458;-57
2023/08/17 04:23:57;;;;;;;4.70;3.05;;;;;;;17.08;97.79;100998.59;5091983;28;20512;-57
2023/08/17 04:26:24;;;;;;;3.97;3.15;;;;;;;16.98;99.63;100992.19;5090862;28;20482;-56
2023/08/17 04:28:50;;;;;;;5.35;3.30;;;;;;;16.98;99.53;100995.72;5080614;28;20128;-56
2023/08/17 04:31:17;;;;;;;2.47;2.28;;;;;;;16.88;99.68;100984.75;5071316;28;20029;-56
2023/08/17 04:33:43;;;;;;;4.30;2.22;;;;;;;16.71;100.00;100989.28;5071811;28;20028;-57
2023/08/17 04:36:09;;;;;;;2.50;2.30;;;;;;;16.74;100.00;100988.81;5073394;28;20036;-57
2023/08/17 04:38:36;;;;;;;7.13;4.35;;;;;;;16.77;100.00;100986.47;5084016;28;20044;-56
2023/08/17 04:41:02;;;;;;;6.07;4.93;;;;;;;16.73;100.00;101000.69;5091720;28;20036;-57
2023/08/17 04:43:29;;;;;;;5.32;4.35;;;;;;;16.73;100.00;100996.09;5080965;28;20048;-56
2023/08/17 04:45:55;;;;;;;6.47;4.05;;;;;;;16.74;100.00;101011.25;5072428;28;20036;-58
2023/08/17 04:48:21;;;;;;;5.72;4.00;;;;;;;16.84;100.00;101014.16;5071469;28;20169;-57
2023/08/17 04:50:48;;;;;;;6.10;4.13;;;;;;;16.84;99.82;101013.34;5071265;28;20031;-57
2023/08/17 04:53:14;;;;;;;4.20;3.80;;;;;;;16.87;99.20;101013.66;5071306;28;20027;-57
2023/08/17 04:55:41;;;;;;;5.82;4.82;;;;;;;16.81;99.69;101014.63;5071105;28;20028;-57
2023/08/17 04:58:07;;;;;;;3.85;3.55;;;;;;;16.85;98.78;101010.38;5071513;28;20029;-57
2023/08/17 05:00:33;;;;;;;4.60;2.72;;;;;;;16.90;98.01;101015.06;5071099;28;20032;-57
2023/08/17 05:02:59;;;;;;;2.63;2.42;;;;;;;16.87;98.72;101015.53;5070877;28;20029;-57
2023/08/17 05:05:26;;;;;;;3.05;2.75;;;;;;;16.83;97.92;101017.91;5069315;28;20525;-56
2023/08/17 05:07:53;;;;;;;2.67;2.47;;;;;;;16.87;97.54;101018.22;5071192;28;20021;-57
2023/08/17 05:10:19;;;;;;;3.60;2.67;;;;;;;16.80;98.01;101026.50;5071062;28;20027;-57
2023/08/17 05:12:46;;;;;;;3.25;2.95;;;;;;;16.75;98.41;101031.00;5070827;28;20106;-57
2023/08/17 05:15:13;;;;;;;4.20;3.80;;;;;;;16.68;98.85;101024.91;5071032;28;20047;-56
2023/08/17 05:17:39;;;;;;;4.72;4.00;;;;;;;16.67;99.50;101023.25;5074070;28;20069;-56
2023/08/17 05:20:08;;;;;;;5.10;4.60;;;;;;;16.70;99.71;101012.75;5081795;28;20108;-57
2023/08/17 05:22:34;;;;;;;4.20;3.80;;;;;;;16.76;99.22;101019.13;5071170;28;20382;-56
2023/08/17 05:25:00;;;;;;;6.68;5.43;;;;;;;16.64;99.43;101021.84;5077527;28;20017;-57
2023/08/17 05:27:26;;;;;;;5.53;4.90;;;;;;;16.71;99.14;101016.31;5071286;28;20063;-56
2023/08/17 05:29:53;;;;;;;5.50;4.93;;;;;;;16.76;99.18;101016.41;5071287;28;20105;-56
2023/08/17 05:32:19;;;;;;;6.72;6.03;;;;;;;16.61;98.96;101012.34;5074909;28;20115;-56
2023/08/17 05:34:47;;;;;;;5.82;5.20;;;;;;;16.69;98.96;101007.59;5093635;28;20380;-58
2023/08/17 05:37:15;;;;;;;5.20;4.20;;;;;;;16.58;98.25;101010.13;5090126;28;20087;-57
2023/08/17 05:39:41;;;;;;;3.90;3.50;;;;;;;16.39;100.00;101005.16;5074110;28;20055;-57
2023/08/17 05:42:07;;;;;;;4.78;4.32;;;;;;;16.36;100.00;101001.03;5075010;28;20115;-57
2023/08/17 05:44:34;;;;;;;4.80;4.35;;;;;;;16.42;100.00;100994.66;5074907;28;20025;-57
2023/08/17 05:47:00;;;;;;;4.22;3.70;;;;;;;16.35;100.00;100996.69;5074535;28;20410;-57
2023/08/17 05:49:26;;;;;;;4.75;3.58;;;;;;;16.51;99.89;100990.53;5074422;28;20044;-55
2023/08/17 05:51:52;;;;;;;5.88;4.35;;;;;;;16.32;100.00;100992.63;5094623;28;20047;-55
2023/08/17 05:54:19;;;;;;;5.97;4.57;;;;;;;16.18;100.00;100990.41;5094944;28;20057;-56
2023/08/17 05:56:47;;;;;;;3.45;3.10;;;;;;;16.21;100.00;100988.06;5094654;28;20516;-55
2023/08/17 05:59:13;;;;;;;5.25;3.45;;;;;;;16.37;100.00;100981.06;5094476;28;20024;-55
2023/08/17 06:01:40;;;;;;;4.88;4.03;;;;;;;16.25;100.00;100981.09;5094371;28;20035;-56
2023/08/17 06:04:07;;;;;;;8.00;5.72;;;;;;;16.25;100.00;100974.88;5092849;28;20024;-56
2023/08/17 06:06:34;;;;;;;4.30;3.90;;;;;;;16.33;100.00;100974.53;5094704;28;20490;-58
2023/08/17 06:09:00;;;;;;;4.43;3.65;;;;;;;16.35;100.00;100970.50;5093265;28;20028;-57
2023/08/17 06:11:26;;;;;;;4.10;3.50;;;;;;;16.33;100.00;100969.13;5094104;28;20020;-58
2023/08/17 06:13:52;;;;;;;5.07;3.53;;;;;;;16.25;100.00;100962.19;5092736;28;20031;-57
2023/08/17 06:16:18;;;;;;;4.97;3.58;;;;;;;16.23;100.00;100953.53;5094256;28;20020;-57
2023/08/17 06:18:45;;;;;;;5.28;4.40;;;;;;;16.23;100.00;100947.31;5093284;28;20107;-55
2023/08/17 06:21:12;;;;;;;5.10;4.53;;;;;;;16.32;100.00;100952.09;5094380;28;20028;-53
2023/08/17 06:23:38;;;;;;;5.00;4.50;;;;;;;16.24;100.00;100957.06;5094240;28;20108;-54
2023/08/17 06:26:04;;;;;;;4.78;4.30;;;;;;;16.27;99.91;100972.78;5075928;28;20028;-51
2023/08/17 06:28:30;;;;;;;5.05;4.55;;;;;;;16.34;100.00;100981.56;5093114;28;20027;-54
2023/08/17 06:30:57;;;;;;;4.68;4.10;;;;;;;16.35;99.68;100969.69;5092718;28;20486;-53
2023/08/17 06:33:24;;;;;;;4.32;3.88;;;;;;;16.19;100.00;100973.16;5093922;28;20028;-57
2023/08/17 06:35:50;;;;;;;4.75;4.07;;;;;;;16.18;100.00;100975.03;5093575;28;20513;-57
2023/08/17 06:38:16;;;;;;;5.25;3.95;;;;;;;16.12;100.00;100973.28;5093840;28;20101;-57
2023/08/17 06:40:43;;;;;;;5.50;3.78;;;;;;;16.23;100.00;100972.44;5075551;28;20138;-56
2023/08/17 06:43:09;;;;;;;5.35;4.10;;;;;;;16.25;100.00;100973.00;5091046;28;20043;-57
2023/08/17 06:45:35;;;;;;;5.30;4.25;;;;;;;16.20;100.00;100959.41;5093576;28;20036;-57
2023/08/17 06:48:02;;;;;;;5.75;5.03;;;;;;;16.24;100.00;100968.66;5093788;28;20545;-57
2023/08/17 06:50:28;;;;;;;5.22;4.72;;;;;;;16.22;100.00;100967.28;5093519;28;20032;-56
2023/08/17 06:52:55;;;;;;;6.25;5.15;;;;;;;16.22;100.00;100964.59;5093611;28;20097;-57
2023/08/17 06:55:21;;;;;;;4.90;4.22;;;;;;;16.24;100.00;100986.75;5092351;28;20016;-58
2023/08/17 06:57:51;;;;;;;3.97;3.00;;;;;;;16.27;100.00;100997.09;5093230;28;20390;-58
2023/08/17 07:00:21;;;;;;;3.33;3.03;;;;;;;16.22;100.00;101007.78;5093216;28;20032;-58
2023/08/17 07:02:48;;;;;;;3.63;3.22;;;;;;;16.19;100.00;101010.97;5073453;28;20024;-57
2023/08/17 07:05:18;;;;;;;4.32;3.30;;;;;;;16.16;100.00;101014.13;5073348;28;20024;-57
2023/08/17 07:07:45;;;;;;;3.33;2.70;;;;;;;16.25;100.00;101004.59;5072880;28;20033;-57
2023/08/17 07:10:11;;;;;;;2.97;2.60;;;;;;;16.39;99.84;101003.28;5072817;28;20024;-56
2023/08/17 07:12:38;;;;;;;3.78;2.40;;;;;;;16.30;100.00;101007.41;5073948;28;20486;-56
2023/08/17 07:15:06;;;;;;;2.28;2.00;;;;;;;16.48;98.71;101015.31;5078526;28;20024;-56
2023/08/17 07:17:34;;;;;;;2.80;1.75;;;;;;;16.48;97.98;101012.63;5093004;28;20035;-56
2023/08/17 07:20:00;;;;;;;3.20;2.38;;;;;;;16.50;97.69;100999.72;5092781;28;20031;-56
2023/08/17 07:22:26;;;;;;;2.20;2.00;;;;;;;16.55;97.11;100994.41;5092912;28;20493;-56
2023/08/17 07:24:53;;;;;;;2.10;1.92;;;;;;;16.58;96.80;100983.09;5093513;28;20056;-56
2023/08/17 07:27:19;;;;;;;2.20;2.08;;;;;;;16.53;96.68;100999.22;5093119;28;20027;-56
2023/08/17 07:29:45;;;;;;;2.10;1.90;;;;;;;16.60;96.28;101007.16;5092628;28;20028;-57
2023/08/17 07:32:11;;;;;;;2.50;2.30;;;;;;;16.29;97.90;101008.47;5091611;28;20485;-56
2023/08/17 07:34:38;;;;;;;1.83;1.73;;;;;;;16.16;99.12;101011.41;5091957;28;20050;-56
2023/08/17 07:37:06;;;;;;;2.33;2.13;;;;;;;16.18;99.14;101015.53;5093205;28;20061;-56
2023/08/17 07:39:33;;;;;;;2.03;1.83;;;;;;;16.31;98.03;100998.22;5091582;28;20123;-56
2023/08/17 07:41:59;;;;;;;2.38;1.35;;;;;;;16.38;97.34;101004.34;5092651;28;20073;-56
2023/08/17 07:44:28;;;;;;;1.95;1.33;;;;;;;16.33;97.95;101006.94;5092675;28;20028;-56
2023/08/17 07:46:54;;;;;;;1.55;1.38;;;;;;;16.26;98.03;100995.44;5092682;28;20389;-56
2023/08/17 07:49:23;;;;;;;1.60;1.50;;;;;;;16.30;98.12;100989.31;5092416;28;20031;-56
2023/08/17 07:51:49;;;;;;;1.80;1.35;;;;;;;16.27;98.37;100980.91;5090211;28;20156;-56
2023/08/17 07:54:15;;;;;;;1.48;1.30;;;;;;;16.34;97.92;100966.16;5092173;28;20031;-56
2023/08/17 07:56:41;;;;;;;1.55;1.35;;;;;;;16.21;98.92;100965.63;5091856;28;20020;-56
2023/08/17 07:59:08;;;;;;;1.50;1.40;;;;;;;16.20;99.23;100961.28;5092065;28;20078;-56
2023/08/17 08:01:34;;;;;;;2.03;1.70;;;;;;;16.28;98.71;100963.63;5092572;28;20035;-56
2023/08/17 08:04:00;;;;;;;1.65;1.55;;;;;;;16.25;99.10;100962.19;5092214;28;20101;-56
2023/08/17 08:06:27;;;;;;;2.90;2.38;;;;;;;16.33;98.62;100964.53;5092050;28;20032;-56
2023/08/17 08:08:53;;;;;;;2.40;2.20;;;;;;;16.27;99.31;100967.38;5090939;28;20105;-56
2023/08/17 08:11:22;;;;;;;2.20;2.00;;;;;;;16.31;98.55;100957.72;5092176;28;20462;-56
2023/08/17 08:13:48;;;;;;;2.03;1.50;;;;;;;16.23;98.88;100942.72;5083250;28;20020;-56
2023/08/17 08:16:14;;;;;;;2.00;1.80;;;;;;;16.28;98.87;100947.41;5071862;28;20035;-56
2023/08/17 08:18:40;;;;;;;2.03;1.60;;;;;;;16.20;98.95;100947.78;5090577;28;20024;-57
2023/08/17 08:21:07;;;;;;;1.90;1.70;;;;;;;16.24;99.09;100951.66;5091321;28;20063;-56
2023/08/17 08:23:33;;;;;;;1.88;1.48;;;;;;;16.17;100.00;100949.09;5088651;28;20024;-56
2023/08/17 08:25:59;;;;;;;1.95;1.85;;;;;;;16.22;100.00;100943.78;5080219;28;20478;-56
2023/08/17 08:28:25;;;;;;;2.03;1.83;;;;;;;16.24;99.97;100938.97;5071737;28;20036;-56
2023/08/17 08:30:52;;;;;;;2.00;1.80;;;;;;;16.15;100.00;100940.41;5076372;28;20066;-56
2023/08/17 08:33:19;;;;;;;1.38;1.27;;;;;;;16.07;100.00;100938.91;5071703;28;20067;-56
2023/08/17 08:35:46;;;;;;;2.03;1.50;;;;;;;15.90;100.00;100931.81;5071848;28;20216;-56
2023/08/17 08:38:12;;;;;;;2.30;1.67;;;;;;;15.88;100.00;100926.66;5071259;28;20047;-56
2023/08/17 08:40:41;;;;;;;1.63;1.52;;;;;;;15.83;100.00;100923.84;5081353;28;20504;-56
2023/08/17 08:43:09;;;;;;;2.28;2.05;;;;;;;15.73;100.00;100927.16;5085345;28;20034;-56
2023/08/17 08:45:37;;;;;;;2.22;2.03;;;;;;;15.76;100.00;100921.25;5071795;28;20028;-56
2023/08/17 08:48:05;;;;;;;2.70;1.52;;;;;;;15.82;100.00;100927.59;5071239;28;20038;-56
2023/08/17 08:50:33;;;;;;;1.85;1.70;;;;;;;15.90;100.00;100921.00;5071312;28;20024;-56
2023/08/17 08:53:02;;;;;;;2.90;2.30;;;;;;;15.90;100.00;100921.81;5071278;28;20065;-56
2023/08/17 08:55:33;;;;;;;2.33;1.88;;;;;;;15.83;100.00;100923.84;5096264;28;20477;-56
2023/08/17 08:57:59;;;;;;;2.38;2.05;;;;;;;15.83;100.00;100926.53;5098661;28;20029;-56
2023/08/17 09:00:27;;;;;;;2.53;2.03;;;;;;;15.98;100.00;100917.91;5091239;28;20054;-56
2023/08/17 09:02:54;;;;;;;1.58;1.45;;;;;;;15.99;100.00;100928.50;5090354;28;20020;-56
2023/08/17 09:05:21;;;;;;;2.03;1.83;;;;;;;15.86;100.00;100928.75;5093285;28;20035;-56
2023/08/17 09:07:50;;;;;;;2.65;1.95;;;;;;;15.83;100.00;100915.75;5095637;28;20110;-56
2023/08/17 09:10:16;;;;;;;2.38;1.50;;;;;;;15.93;100.00;100924.03;5095249;28;20032;-56
2023/08/17 09:12:46;;;;;;;1.67;1.58;;;;;;;15.75;100.00;100924.22;5094898;28;20028;-57
2023/08/17 09:15:12;;;;;;;1.80;1.67;;;;;;;15.75;100.00;100918.81;5082042;28;20064;-56
2023/08/17 09:17:38;;;;;;;2.10;1.27;;;;;;;15.82;100.00;100908.69;5095566;28;20111;-56
2023/08/17 09:20:07;;;;;;;1.55;1.45;;;;;;;15.62;100.00;100910.94;5087526;28;20028;-56
2023/08/17 09:22:40;;;;;;;1.23;1.13;;;;;;;15.68;100.00;100899.25;5074558;28;20025;-56
2023/08/17 09:25:08;;;;;;;1.58;1.33;;;;;;;15.58;100.00;100889.84;5073665;28;20071;-56
2023/08/17 09:27:36;;;;;;;2.20;1.80;;;;;;;15.54;100.00;100888.66;5074211;28;20032;-56
2023/08/17 09:30:08;;;;;;;1.38;1.27;;;;;;;15.56;100.00;100878.47;5074506;28;20032;-56
2023/08/17 09:32:35;;;;;;;3.33;1.77;;;;;;;15.57;100.00;100882.81;5074821;28;20056;-56
2023/08/17 09:35:05;;;;;;;5.15;2.25;;;;;;;15.40;100.00;100876.50;5074686;28;20021;-56
2023/08/17 09:37:32;;;;;;;2.00;1.40;;;;;;;15.62;100.00;100870.47;5075131;28;20055;-56
2023/08/17 09:39:59;;;;;;;1.63;1.52;;;;;;;15.49;100.00;100867.00;5074208;28;20044;-56
2023/08/17 09:42:27;;;;;;;1.70;1.60;;;;;;;15.49;100.00;100871.53;5074781;28;20067;-56
2023/08/17 09:44:53;;;;;;;3.90;1.75;;;;;;;15.51;100.00;100886.44;5078469;28;20454;-57
2023/08/17 09:47:21;;;;;;;1.27;1.10;;;;;;;15.64;100.00;100885.38;5093480;28;20020;-57
2023/08/17 09:49:52;;;;;;;1.25;1.20;;;;;;;15.74;100.00;100879.38;5094601;28;20482;-56
2023/08/17 09:52:23;;;;;;;1.60;1.50;;;;;;;15.61;100.00;100875.06;5094883;28;20122;-56
2023/08/17 09:54:52;;;;;;;2.75;1.60;;;;;;;15.61;100.00;100875.06;5094781;28;20016;-56
2023/08/17 09:57:18;;;;;;;1.58;1.42;;;;;;;15.72;100.00;100868.84;5094608;28;20028;-56
2023/08/17 09:59:45;;;;;;;1.83;1.73;;;;;;;15.66;100.00;100877.09;5094265;28;20454;-56
2023/08/17 10:02:22;;;;;;;2.03;1.83;;;;;;;15.70;100.00;100875.53;5093032;28;20036;-56
2023/08/17 10:04:53;;;;;;;2.00;1.80;;;;;;;15.71;100.00;100874.47;5094433;28;20024;-56
2023/08/17 10:07:21;;;;;;;2.53;2.03;;;;;;;15.79;100.00;100880.31;5094422;28;20365;-56
2023/08/17 10:10:00;;;;;;;2.58;1.85;;;;;;;15.87;100.00;100889.09;5094057;28;20039;-56
2023/08/17 10:12:33;;;;;;;2.15;1.95;;;;;;;15.91;100.00;100874.06;5094597;28;20056;-56
2023/08/17 10:15:10;;;;;;;3.15;2.05;;;;;;;15.82;100.00;100887.94;5077437;28;20036;-56
2023/08/17 10:18:15;;;;;;;2.45;2.10;;;;;;;15.70;100.00;100879.03;5094254;28;20474;-56
2023/08/17 10:20:45;;;;;;;5.40;2.40;;;;;;;15.73;100.00;100880.47;5093971;28;20118;-57
2023/08/17 10:23:22;;;;;;;2.28;2.08;;;;;;;15.72;100.00;100882.34;5094326;28;20059;-56
2023/08/17 10:25:50;;;;;;;1.85;1.65;;;;;;;15.68;100.00;100881.16;5092606;28;20382;-56
2023/08/17 10:28:17;;;;;;;2.50;2.15;;;;;;;15.74;100.00;100876.69;5094279;28;20439;-56
2023/08/17 10:30:44;;;;;;;3.05;1.60;;;;;;;15.80;100.00;100881.13;5093352;28;20359;-56
2023/08/17 10:33:10;;;;;;;2.92;1.73;;;;;;;15.68;100.00;100881.16;5093794;28;20031;-56
2023/08/17 10:35:40;;;;;;;2.88;1.23;;;;;;;15.55;100.00;100881.41;5094032;28;20028;-56
2023/08/17 10:38:06;;;;;;;1.90;1.17;;;;;;;15.64;100.00;100884.56;5093844;28;20063;-56
2023/08/17 10:40:37;;;;;;;1.63;1.15;;;;;;;15.68;100.00;100891.16;5091549;28;20071;-56
2023/08/17 10:43:04;;;;;;;4.70;1.42;;;;;;;15.73;100.00;100888.56;5094178;28;20474;-56
2023/08/17 10:45:38;;;;;;;1.15;1.10;;;;;;;15.72;100.00;100890.44;5093579;28;20389;-56
2023/08/17 10:48:08;;;;;;;0.93;0.85;;;;;;;15.80;100.00;100883.81;5093991;28;20106;-56
2023/08/17 10:50:36;;;;;;;1.10;1.00;;;;;;;15.75;100.00;100881.84;5092267;28;20103;-56
2023/08/17 10:53:15;;;;;;;1.30;1.20;;;;;;;15.67;100.00;100884.13;5093742;28;20047;-56
2023/08/17 10:55:45;;;;;;;1.75;1.27;;;;;;;15.61;100.00;100883.16;5093568;28;20020;-56
2023/08/17 10:58:11;;;;;;;0.95;0.93;;;;;;;15.67;100.00;100878.72;5093625;28;20046;-56
2023/08/17 11:00:38;;;;;;;1.20;1.10;;;;;;;15.69;100.00;100885.50;5093192;28;20032;-56
2023/08/17 11:03:09;;;;;;;1.45;1.35;;;;;;;15.60;100.00;100870.69;5093395;28;20024;-56
2023/08/17 11:05:39;;;;;;;1.30;1.20;;;;;;;15.57;100.00;100868.50;5091013;28;20079;-56
2023/08/17 11:08:06;;;;;;;1.42;1.33;;;;;;;15.57;100.00;100869.31;5093526;28;20024;-56
2023/08/17 11:10:33;;;;;;;1.70;1.60;;;;;;;15.52;100.00;100865.69;5093141;28;20023;-56
2023/08/17 11:12:59;;;;;;;2.45;1.70;;;;;;;15.51;100.00;100874.84;5091260;28;20049;-56
2023/08/17 11:15:37;;;;;;;1.40;1.23;;;;;;;15.53;100.00;100883.50;5072990;28;20094;-56
2023/08/17 11:18:07;;;;;;;1.42;1.33;;;;;;;15.62;100.00;100879.41;5073234;28;20410;-56
2023/08/17 11:20:35;;;;;;;1.58;1.25;;;;;;;15.78;100.00;100880.56;5072763;28;20421;-56
2023/08/17 11:23:02;;;;;;;1.17;1.08;;;;;;;15.90;100.00;100885.91;5073172;28;20052;-56